Time;durP1;ratioP1;P1;durP2;ratioP2;P2;SDS_P1;SDS_P2;PMS_P1;PMS_P2;Temp;Humidity;BMP_temperature;BMP_pressure;BME280_temperature;BME280_humidity;BME280_pressure;Samples;Min_cycle;Max_cycle;Signal;HPM_P1;HPM_P2
2022/05/15 00:02:11;;;;;;;17.17;5.32;;;12.30;99.90;;;;;;5038977;28;20109;-72
2022/05/15 00:04:38;;;;;;;21.08;6.28;;;12.20;99.90;;;;;;5017292;28;20044;-72
2022/05/15 00:07:04;;;;;;;17.13;5.43;;;12.20;99.90;;;;;;5033250;28;20059;-72
2022/05/15 00:09:30;;;;;;;15.80;5.38;;;12.20;99.90;;;;;;5032881;28;20083;-72
2022/05/15 00:11:56;;;;;;;18.63;5.68;;;12.10;99.90;;;;;;5021704;28;20025;-72
2022/05/15 00:14:22;;;;;;;17.58;5.28;;;12.10;99.90;;;;;;5036502;28;20485;-72
2022/05/15 00:16:47;;;;;;;16.10;5.13;;;12.10;99.90;;;;;;5017747;28;20064;-72
2022/05/15 00:19:13;;;;;;;19.30;5.47;;;12.10;99.90;;;;;;5034851;28;20378;-72
2022/05/15 00:21:39;;;;;;;21.70;6.68;;;12.10;99.90;;;;;;5017912;28;20051;-72
2022/05/15 00:24:05;;;;;;;16.30;5.68;;;12.10;99.90;;;;;;5016142;28;20087;-72
2022/05/15 00:26:32;;;;;;;18.23;6.45;;;12.00;99.90;;;;;;5014771;28;20061;-72
2022/05/15 00:28:58;;;;;;;16.38;5.72;;;12.00;99.90;;;;;;4999831;28;20112;-72
2022/05/15 00:31:25;;;;;;;21.80;6.15;;;12.00;99.90;;;;;;5033762;28;20434;-72
2022/05/15 00:33:51;;;;;;;18.23;5.80;;;12.00;99.90;;;;;;5000740;28;20032;-73
2022/05/15 00:36:18;;;;;;;21.73;5.90;;;12.00;99.90;;;;;;5018769;28;20033;-74
2022/05/15 00:38:43;;;;;;;14.48;5.07;;;12.00;99.90;;;;;;5013639;28;20449;-74
2022/05/15 00:41:11;;;;;;;20.30;6.20;;;12.00;99.90;;;;;;5011956;28;20061;-74
2022/05/15 00:43:50;;;;;;;18.92;5.40;;;12.00;99.90;;;;;;5030478;28;20124;-74
2022/05/15 00:46:29;;;;;;;20.23;5.95;;;12.00;99.90;;;;;;5032046;28;20128;-74
2022/05/15 00:48:57;;;;;;;19.38;5.95;;;11.90;99.90;;;;;;5013195;28;20025;-72
2022/05/15 00:51:37;;;;;;;18.55;5.57;;;11.90;99.90;;;;;;5015907;28;20025;-75
2022/05/15 00:54:18;;;;;;;18.08;5.80;;;11.90;99.90;;;;;;5031147;28;20127;-72
2022/05/15 00:56:50;;;;;;;23.70;6.75;;;11.80;99.90;;;;;;5009814;28;20363;-74
2022/05/15 00:59:20;;;;;;;17.42;5.85;;;11.80;99.90;;;;;;5013708;28;20028;-72
2022/05/15 01:01:45;;;;;;;15.27;4.78;;;11.80;99.90;;;;;;5015673;28;20515;-72
2022/05/15 01:04:12;;;;;;;16.30;5.80;;;11.60;99.90;;;;;;5014695;28;20038;-72
2022/05/15 01:06:43;;;;;;;15.38;4.90;;;11.70;99.90;;;;;;5035661;28;20036;-74
2022/05/15 01:09:10;;;;;;;16.02;5.60;;;11.60;99.90;;;;;;5016392;28;20524;-74
2022/05/15 01:11:37;;;;;;;18.40;6.35;;;11.60;99.90;;;;;;5016594;28;20380;-74
2022/05/15 01:14:05;;;;;;;20.08;6.38;;;11.60;99.90;;;;;;5033424;28;20110;-74
2022/05/15 01:16:32;;;;;;;18.48;6.50;;;11.60;99.90;;;;;;5029286;28;20112;-72
2022/05/15 01:18:59;;;;;;;16.50;6.85;;;11.60;99.90;;;;;;5035065;28;20029;-72
2022/05/15 01:21:33;;;;;;;17.42;6.10;;;11.50;99.90;;;;;;5015888;28;20042;-74
2022/05/15 01:24:00;;;;;;;16.92;5.57;;;11.40;99.90;;;;;;5012294;28;20501;-75
2022/05/15 01:26:26;;;;;;;17.88;6.30;;;11.40;99.90;;;;;;5028601;28;20021;-72
2022/05/15 01:28:52;;;;;;;14.80;6.22;;;11.50;99.90;;;;;;5032115;28;20036;-72
2022/05/15 01:31:18;;;;;;;17.08;5.88;;;11.50;99.90;;;;;;5013442;28;20029;-73
2022/05/15 01:33:50;;;;;;;17.85;6.60;;;11.50;99.90;;;;;;5015263;28;20021;-72
2022/05/15 01:36:20;;;;;;;20.30;6.97;;;11.50;99.90;;;;;;5019738;28;20045;-72
2022/05/15 01:38:46;;;;;;;21.15;6.47;;;11.50;99.90;;;;;;5010708;28;20029;-72
2022/05/15 01:41:12;;;;;;;16.83;5.65;;;11.40;99.90;;;;;;4996264;28;20041;-74
2022/05/15 01:43:40;;;;;;;23.13;7.88;;;11.40;99.90;;;;;;5012538;28;20095;-72
2022/05/15 01:46:06;;;;;;;15.57;6.10;;;11.40;99.90;;;;;;5029017;28;20034;-72
2022/05/15 01:48:32;;;;;;;24.65;6.72;;;11.40;99.90;;;;;;5034457;28;20539;-72
2022/05/15 01:50:58;;;;;;;17.52;6.35;;;11.40;99.90;;;;;;5034292;28;20027;-74
2022/05/15 01:53:24;;;;;;;20.05;6.07;;;11.40;99.90;;;;;;5016419;28;20450;-74
2022/05/15 01:55:50;;;;;;;18.10;6.75;;;11.30;99.90;;;;;;5038686;28;20485;-74
2022/05/15 01:58:16;;;;;;;20.85;6.65;;;11.30;99.90;;;;;;5036931;28;20032;-75
2022/05/15 02:00:42;;;;;;;21.05;7.32;;;11.30;99.90;;;;;;5010527;28;20393;-75
2022/05/15 02:03:07;;;;;;;16.98;5.85;;;11.30;99.90;;;;;;4998135;28;20029;-74
2022/05/15 02:05:33;;;;;;;20.38;6.75;;;11.30;99.90;;;;;;5037187;28;20400;-72
2022/05/15 02:07:59;;;;;;;21.98;6.72;;;11.30;99.90;;;;;;4996861;28;20468;-73
2022/05/15 02:10:25;;;;;;;17.50;6.55;;;11.30;99.90;;;;;;5017298;28;20029;-72
2022/05/15 02:12:50;;;;;;;26.30;7.20;;;11.30;99.90;;;;;;4996109;28;20025;-74
2022/05/15 02:15:16;;;;;;;19.00;6.70;;;11.20;99.90;;;;;;5033484;28;20025;-72
2022/05/15 02:17:42;;;;;;;20.13;6.53;;;11.20;99.90;;;;;;5033382;28;20136;-74
2022/05/15 02:20:10;;;;;;;16.65;6.43;;;11.10;99.90;;;;;;4997066;28;20084;-75
2022/05/15 02:22:38;;;;;;;14.10;6.13;;;11.10;99.90;;;;;;5015309;28;20029;-74
2022/05/15 02:25:06;;;;;;;21.25;8.10;;;11.00;99.90;;;;;;5001252;28;20034;-73
2022/05/15 02:27:32;;;;;;;18.98;6.90;;;11.10;99.90;;;;;;5030852;28;20766;-72
2022/05/15 02:29:59;;;;;;;17.48;6.55;;;11.00;99.90;;;;;;5032602;28;20026;-71
2022/05/15 02:32:24;;;;;;;19.08;7.90;;;11.00;99.90;;;;;;5032220;28;20104;-74
2022/05/15 02:34:50;;;;;;;22.45;6.80;;;11.00;99.90;;;;;;5000468;28;20110;-74
2022/05/15 02:37:16;;;;;;;19.63;6.47;;;11.00;99.90;;;;;;5035772;28;20401;-73
2022/05/15 02:39:42;;;;;;;22.33;6.85;;;10.90;99.90;;;;;;5018395;28;20037;-73
2022/05/15 02:42:09;;;;;;;23.38;7.07;;;10.90;99.90;;;;;;5030890;28;20025;-74
2022/05/15 02:44:34;;;;;;;16.55;6.30;;;11.00;99.90;;;;;;5012380;28;20033;-71
2022/05/15 02:47:00;;;;;;;19.50;6.53;;;10.90;99.90;;;;;;5036277;28;20035;-75
2022/05/15 02:52:10;;;;;;;20.13;7.95;;;10.90;99.90;;;;;;5035531;28;20409;-72
2022/05/15 02:54:36;;;;;;;21.40;7.15;;;10.90;99.90;;;;;;5037188;28;20033;-75
2022/05/15 02:57:07;;;;;;;24.70;8.25;;;10.90;99.90;;;;;;5017779;28;20133;-72
2022/05/15 02:59:34;;;;;;;19.08;7.25;;;10.90;99.90;;;;;;5017471;28;20335;-72
2022/05/15 03:02:00;;;;;;;22.85;7.70;;;10.80;99.90;;;;;;5017369;28;20033;-75
2022/05/15 03:04:27;;;;;;;21.05;7.85;;;10.90;99.90;;;;;;5023321;28;20025;-75
2022/05/15 03:06:53;;;;;;;23.52;8.32;;;10.80;99.90;;;;;;5035512;28;20053;-72
2022/05/15 03:09:19;;;;;;;19.50;7.07;;;10.90;99.90;;;;;;5039545;28;20202;-73
2022/05/15 03:11:45;;;;;;;19.20;6.90;;;10.80;99.90;;;;;;5007330;28;20534;-73
2022/05/15 03:14:10;;;;;;;18.60;7.10;;;10.80;99.90;;;;;;5004105;28;20033;-76
2022/05/15 03:16:36;;;;;;;18.80;7.32;;;10.70;99.90;;;;;;5038192;28;20049;-71
2022/05/15 03:19:02;;;;;;;20.20;6.72;;;10.70;99.90;;;;;;5019988;28;20087;-75
2022/05/15 03:21:31;;;;;;;18.50;7.78;;;10.70;99.90;;;;;;5003790;28;20032;-77
2022/05/15 03:24:02;;;;;;;18.45;7.57;;;10.70;99.90;;;;;;5035901;28;20048;-72
2022/05/15 03:26:28;;;;;;;;;;;10.70;99.90;;;;;;5005698;28;20021;-74
2022/05/15 03:28:54;;;;;;;22.83;7.68;;;10.70;99.90;;;;;;5003996;28;20368;-75
2022/05/15 03:31:20;;;;;;;23.50;7.82;;;10.70;99.90;;;;;;5036247;28;20024;-73
2022/05/15 03:33:47;;;;;;;20.02;6.95;;;10.70;99.90;;;;;;5021711;28;20673;-75
2022/05/15 03:36:14;;;;;;;16.02;7.35;;;10.70;99.90;;;;;;5016473;28;20047;-74
2022/05/15 03:38:41;;;;;;;18.23;8.13;;;10.70;99.90;;;;;;5020655;28;20508;-73
2022/05/15 03:41:08;;;;;;;18.83;7.93;;;10.70;99.90;;;;;;5014875;28;20517;-76
2022/05/15 03:43:37;;;;;;;21.17;8.05;;;10.70;99.90;;;;;;5038440;28;20041;-76
2022/05/15 03:46:04;;;;;;;20.75;7.00;;;10.70;99.90;;;;;;5031027;28;20029;-75
2022/05/15 03:48:30;;;;;;;18.55;7.07;;;10.70;99.90;;;;;;5015781;28;20048;-73
2022/05/15 03:50:56;;;;;;;20.40;7.75;;;10.70;99.90;;;;;;5033794;28;20025;-76
2022/05/15 03:53:24;;;;;;;23.42;7.68;;;10.70;99.90;;;;;;5040565;28;20021;-73
2022/05/15 03:55:50;;;;;;;17.88;7.50;;;10.60;99.90;;;;;;5019063;28;20053;-74
2022/05/15 03:58:16;;;;;;;16.08;6.95;;;10.70;99.90;;;;;;5033236;28;20540;-76
2022/05/15 04:00:42;;;;;;;22.75;7.75;;;10.60;99.90;;;;;;5033541;28;20096;-75
2022/05/15 04:03:08;;;;;;;21.35;7.68;;;10.60;99.90;;;;;;5016099;28;20044;-77
2022/05/15 04:05:34;;;;;;;15.95;7.20;;;10.70;99.90;;;;;;5030660;28;20550;-75
2022/05/15 04:08:00;;;;;;;19.52;7.07;;;10.70;99.90;;;;;;5019851;28;20030;-74
2022/05/15 04:10:29;;;;;;;22.92;8.20;;;10.70;99.90;;;;;;5020481;28;20017;-77
2022/05/15 04:12:54;;;;;;;20.73;8.45;;;10.70;99.90;;;;;;5035633;28;20050;-73
2022/05/15 04:15:20;;;;;;;20.90;7.45;;;10.70;99.90;;;;;;5031599;28;20078;-75
2022/05/15 04:17:51;;;;;;;19.52;8.73;;;10.70;99.90;;;;;;4998875;28;20037;-74
2022/05/15 04:20:21;;;;;;;21.80;7.57;;;10.70;99.90;;;;;;5016131;28;20029;-75
2022/05/15 04:22:46;;;;;;;17.23;8.00;;;10.80;99.90;;;;;;5023189;28;20083;-77
2022/05/15 04:25:12;;;;;;;21.38;8.55;;;10.80;99.90;;;;;;5038504;28;20033;-76
2022/05/15 04:27:39;;;;;;;21.90;8.15;;;10.80;99.90;;;;;;5020163;28;20082;-74
2022/05/15 04:30:07;;;;;;;21.40;8.13;;;10.80;99.90;;;;;;5016427;28;20097;-76
2022/05/15 04:32:32;;;;;;;21.15;7.95;;;10.80;99.90;;;;;;5012005;28;20025;-74
2022/05/15 04:34:58;;;;;;;20.33;8.48;;;10.70;99.90;;;;;;5001328;28;20028;-74
2022/05/15 04:37:24;;;;;;;18.02;8.45;;;10.80;99.90;;;;;;5032354;28;20040;-75
2022/05/15 04:39:50;;;;;;;18.48;7.85;;;10.80;99.90;;;;;;5016549;28;20029;-72
2022/05/15 04:42:16;;;;;;;13.95;6.97;;;10.80;99.90;;;;;;5037812;28;20055;-72
2022/05/15 04:44:42;;;;;;;16.80;7.88;;;10.80;99.90;;;;;;5019135;28;20512;-73
2022/05/15 04:47:07;;;;;;;13.65;7.80;;;10.90;99.90;;;;;;5001315;28;20061;-73
2022/05/15 04:49:33;;;;;;;13.05;7.53;;;11.00;99.90;;;;;;5033100;28;20032;-75
2022/05/15 04:51:59;;;;;;;15.02;7.25;;;11.00;99.90;;;;;;5019133;28;20029;-75
2022/05/15 04:54:24;;;;;;;14.68;7.47;;;11.10;99.90;;;;;;5035820;28;20035;-74
2022/05/15 04:56:50;;;;;;;15.48;7.47;;;11.10;99.90;;;;;;5032634;28;20029;-71
2022/05/15 04:59:16;;;;;;;14.55;7.03;;;11.10;99.90;;;;;;5034133;28;20030;-73
2022/05/15 05:01:41;;;;;;;14.55;7.35;;;11.10;99.90;;;;;;5014118;28;20117;-76
2022/05/15 05:04:07;;;;;;;15.25;6.93;;;11.20;99.90;;;;;;5018451;28;20191;-74
2022/05/15 05:06:33;;;;;;;11.82;6.93;;;11.20;99.90;;;;;;5017668;28;20035;-75
2022/05/15 05:08:59;;;;;;;15.30;7.00;;;11.30;99.90;;;;;;5015197;28;20103;-75
2022/05/15 05:11:24;;;;;;;16.98;7.72;;;11.30;99.90;;;;;;5036353;28;20366;-72
2022/05/15 05:13:50;;;;;;;17.60;7.97;;;11.30;99.90;;;;;;5020485;28;20043;-74
2022/05/15 05:16:18;;;;;;;16.23;6.95;;;11.40;99.90;;;;;;5015724;28;20537;-74
2022/05/15 05:18:44;;;;;;;17.48;7.90;;;11.40;99.90;;;;;;4998478;28;20025;-74
2022/05/15 05:21:09;;;;;;;13.07;7.53;;;11.50;99.90;;;;;;5020132;28;20039;-76
2022/05/15 05:23:35;;;;;;;13.23;6.85;;;11.50;99.90;;;;;;5035362;28;20049;-75
2022/05/15 05:26:03;;;;;;;14.63;7.15;;;11.60;99.90;;;;;;5038860;28;20017;-75
2022/05/15 05:28:29;;;;;;;17.92;8.23;;;11.60;99.90;;;;;;4995995;28;20561;-72
2022/05/15 05:30:55;;;;;;;21.75;7.95;;;11.80;99.90;;;;;;5032251;28;20128;-73
2022/05/15 05:33:22;;;;;;;18.77;7.82;;;11.80;99.90;;;;;;5034610;28;20378;-75
2022/05/15 05:35:49;;;;;;;22.25;7.80;;;11.80;99.90;;;;;;5016954;28;20029;-75
2022/05/15 05:38:14;;;;;;;21.33;8.02;;;11.90;99.90;;;;;;5021639;28;20038;-75
2022/05/15 05:40:40;;;;;;;19.85;7.65;;;11.90;99.90;;;;;;5017989;28;20373;-73
2022/05/15 05:43:06;;;;;;;20.77;7.32;;;12.00;99.90;;;;;;5032996;28;20045;-75
2022/05/15 05:45:31;;;;;;;22.17;7.22;;;12.10;99.90;;;;;;5000583;28;20037;-75
2022/05/15 05:47:57;;;;;;;17.35;6.95;;;12.10;99.90;;;;;;5018695;28;20025;-74
2022/05/15 05:50:26;;;;;;;25.95;7.13;;;12.20;99.90;;;;;;4993614;28;20021;-72
2022/05/15 05:52:53;;;;;;;22.73;8.02;;;12.20;99.90;;;;;;5032991;28;20037;-74
2022/05/15 05:55:20;;;;;;;20.48;6.50;;;12.30;99.90;;;;;;5012749;28;20603;-73
2022/05/15 05:57:46;;;;;;;22.52;6.85;;;12.30;99.90;;;;;;5028165;28;20037;-73
2022/05/15 06:00:16;;;;;;;16.15;6.75;;;12.40;99.90;;;;;;5012192;28;20045;-73
2022/05/15 06:02:42;;;;;;;16.00;6.20;;;12.40;99.90;;;;;;5011314;28;20365;-74
2022/05/15 06:05:09;;;;;;;19.10;6.63;;;12.50;99.90;;;;;;5026627;28;20530;-72
2022/05/15 06:07:35;;;;;;;18.17;5.90;;;12.50;99.90;;;;;;5030285;28;20021;-73
2022/05/15 06:10:02;;;;;;;17.60;5.90;;;12.50;99.90;;;;;;5015114;28;20026;-73
2022/05/15 06:12:28;;;;;;;16.23;5.75;;;12.60;99.90;;;;;;4998585;28;20116;-74
2022/05/15 06:14:54;;;;;;;15.43;5.07;;;12.60;99.90;;;;;;5028885;28;20120;-75
2022/05/15 06:17:26;;;;;;;15.45;5.60;;;12.70;99.90;;;;;;5014184;28;20528;-74
2022/05/15 06:19:52;;;;;;;18.20;5.43;;;12.80;99.90;;;;;;5034673;28;20430;-74
2022/05/15 06:22:18;;;;;;;17.85;5.05;;;12.80;99.90;;;;;;5009633;28;20492;-73
2022/05/15 06:24:44;;;;;;;14.20;4.70;;;12.90;99.90;;;;;;5011234;28;20152;-72
2022/05/15 06:27:12;;;;;;;16.92;5.13;;;13.00;99.90;;;;;;5011300;28;20033;-74
2022/05/15 06:29:40;;;;;;;16.25;4.50;;;13.00;99.90;;;;;;5014846;28;20105;-73
2022/05/15 06:32:07;;;;;;;14.07;4.55;;;13.00;99.90;;;;;;5042952;28;20043;-75
2022/05/15 06:34:33;;;;;;;16.90;5.30;;;13.10;99.90;;;;;;5000564;28;20064;-73
2022/05/15 06:36:58;;;;;;;12.20;4.85;;;13.10;99.90;;;;;;5015190;28;20114;-75
2022/05/15 06:39:24;;;;;;;11.30;4.22;;;13.10;99.90;;;;;;5020171;28;20493;-72
2022/05/15 06:41:50;;;;;;;8.75;3.05;;;13.20;99.90;;;;;;5015839;28;20124;-77
2022/05/15 06:44:17;;;;;;;12.73;3.80;;;13.20;99.90;;;;;;5017905;28;20391;-76
2022/05/15 06:46:44;;;;;;;7.35;2.85;;;13.30;99.90;;;;;;5019096;28;20028;-73
2022/05/15 06:49:10;;;;;;;9.02;2.80;;;13.30;99.90;;;;;;5017102;28;20163;-76
2022/05/15 06:51:35;;;;;;;12.15;3.45;;;13.40;99.90;;;;;;5035160;28;20021;-73
2022/05/15 06:54:01;;;;;;;10.75;3.05;;;13.30;99.90;;;;;;5037135;28;20416;-76
2022/05/15 06:59:11;;;;;;;6.18;2.47;;;13.50;99.90;;;;;;5013318;28;20104;-73
2022/05/15 07:01:37;;;;;;;6.78;2.75;;;13.50;99.90;;;;;;5013191;28;20521;-73
2022/05/15 07:04:02;;;;;;;10.88;3.42;;;13.60;99.90;;;;;;5014040;28;20113;-75
2022/05/15 07:06:28;;;;;;;8.52;2.55;;;13.70;99.90;;;;;;5031208;28;20140;-72
2022/05/15 07:08:54;;;;;;;11.65;3.33;;;13.70;99.90;;;;;;4997701;28;20153;-73
2022/05/15 07:11:20;;;;;;;12.90;3.13;;;13.80;99.90;;;;;;5034255;28;20029;-72
2022/05/15 07:13:45;;;;;;;7.95;2.60;;;13.90;99.90;;;;;;5001263;28;20041;-74
2022/05/15 07:16:11;;;;;;;7.35;2.00;;;13.90;99.90;;;;;;5018836;28;20479;-74
2022/05/15 07:18:38;;;;;;;6.28;1.98;;;13.90;99.90;;;;;;5017440;28;20037;-73
2022/05/15 07:21:04;;;;;;;5.65;1.90;;;14.00;99.90;;;;;;5015308;28;20040;-75
2022/05/15 07:23:31;;;;;;;5.40;2.28;;;14.00;99.90;;;;;;4997471;28;20044;-72
2022/05/15 07:25:57;;;;;;;4.05;1.80;;;14.00;99.90;;;;;;5034928;28;20029;-72
2022/05/15 07:28:23;;;;;;;4.55;2.40;;;14.10;99.90;;;;;;5001310;28;20055;-72
2022/05/15 07:30:50;;;;;;;7.63;2.80;;;14.20;99.90;;;;;;5017207;28;20519;-73
2022/05/15 07:33:20;;;;;;;7.75;2.45;;;14.20;99.90;;;;;;5033904;28;20033;-73
2022/05/15 07:35:46;;;;;;;7.10;2.35;;;14.30;99.90;;;;;;5015800;28;20044;-73
2022/05/15 07:38:12;;;;;;;4.63;1.83;;;14.30;99.90;;;;;;5015999;28;20042;-72
2022/05/15 07:40:38;;;;;;;6.50;1.35;;;14.40;99.90;;;;;;5032089;28;20038;-75
2022/05/15 07:43:08;;;;;;;4.78;1.40;;;14.40;99.90;;;;;;5014659;28;20037;-74
2022/05/15 07:45:35;;;;;;;3.03;1.38;;;14.40;99.90;;;;;;5033385;28;20025;-72
2022/05/15 07:48:01;;;;;;;4.97;1.30;;;14.50;99.90;;;;;;5013481;28;20040;-72
2022/05/15 07:50:27;;;;;;;3.17;1.40;;;14.50;99.90;;;;;;5017468;28;20429;-73
2022/05/15 07:52:52;;;;;;;3.10;1.23;;;14.50;99.90;;;;;;5001695;28;20048;-75
2022/05/15 07:55:18;;;;;;;3.72;1.10;;;14.60;99.90;;;;;;5014864;28;20025;-72
2022/05/15 07:57:44;;;;;;;3.88;1.50;;;14.60;99.90;;;;;;4999290;28;20057;-73
2022/05/15 08:00:13;;;;;;;3.65;1.50;;;14.70;99.90;;;;;;5013337;28;21129;-75
2022/05/15 08:02:41;;;;;;;3.55;1.20;;;14.70;99.90;;;;;;5015378;28;20052;-74
2022/05/15 08:08:03;;;;;;;4.07;1.48;;;14.90;99.80;;;;;;5014406;28;20036;-74
2022/05/15 08:10:35;;;;;;;3.28;1.30;;;15.00;99.30;;;;;;5015959;28;20032;-73
2022/05/15 08:13:01;;;;;;;4.90;1.33;;;15.00;99.00;;;;;;5012919;28;20022;-75
2022/05/15 08:15:28;;;;;;;3.60;1.40;;;15.00;99.10;;;;;;5034607;28;20112;-75
2022/05/15 08:17:54;;;;;;;3.17;1.33;;;15.10;98.80;;;;;;5036030;28;20036;-75
2022/05/15 08:25:50;;;;;;;3.97;1.60;;;15.30;98.40;;;;;;5030464;28;20114;-73
2022/05/15 08:28:16;;;;;;;8.02;1.88;;;15.40;97.80;;;;;;5013298;28;20405;-72
2022/05/15 08:30:42;;;;;;;4.28;1.58;;;15.50;97.80;;;;;;5022793;28;20056;-71
2022/05/15 08:33:10;;;;;;;3.58;1.40;;;15.60;97.30;;;;;;5014455;28;20032;-75
2022/05/15 08:35:36;;;;;;;2.30;1.15;;;15.60;97.30;;;;;;5000977;28;20488;-76
2022/05/15 08:38:02;;;;;;;4.10;1.40;;;15.70;95.90;;;;;;5032335;28;20484;-75
2022/05/15 08:40:47;;;;;;;3.83;1.75;;;15.70;96.30;;;;;;4986429;28;20046;-72
2022/05/15 08:43:18;;;;;;;2.55;1.10;;;15.70;96.00;;;;;;5014534;28;20044;-73
2022/05/15 08:46:03;;;;;;;3.03;1.17;;;15.90;95.00;;;;;;4997727;28;20065;-76
2022/05/15 08:48:33;;;;;;;4.15;1.55;;;15.80;95.20;;;;;;5014156;28;20534;-73
2022/05/15 08:51:01;;;;;;;2.75;1.10;;;15.90;95.70;;;;;;4997672;28;20036;-72
2022/05/15 08:53:35;;;;;;;5.45;1.40;;;16.00;95.80;;;;;;5026898;28;20403;-72
2022/05/15 08:56:07;;;;;;;4.85;1.60;;;16.00;95.50;;;;;;5029448;28;20099;-72
2022/05/15 08:58:55;;;;;;;3.95;1.30;;;16.10;95.40;;;;;;4995721;28;20059;-74
2022/05/15 09:01:29;;;;;;;2.35;1.08;;;16.10;94.70;;;;;;5012114;28;20100;-74
2022/05/15 09:03:55;;;;;;;3.58;1.33;;;16.20;94.40;;;;;;5011915;28;20554;-74
2022/05/15 09:06:30;;;;;;;3.03;0.93;;;16.20;94.90;;;;;;5014543;28;20033;-74
2022/05/15 09:09:18;;;;;;;3.85;1.35;;;16.30;92.90;;;;;;5016564;28;20123;-72
2022/05/15 09:12:01;;;;;;;4.45;1.10;;;16.30;93.00;;;;;;5030332;28;20503;-74
2022/05/15 09:14:55;;;;;;;2.95;1.08;;;16.30;92.60;;;;;;5027083;28;20441;-76
2022/05/15 09:17:28;;;;;;;1.80;1.20;;;16.40;92.60;;;;;;4996580;28;20060;-72
2022/05/15 09:19:57;;;;;;;2.90;1.10;;;16.40;93.10;;;;;;5029224;28;20031;-75
2022/05/15 09:22:33;;;;;;;2.70;1.05;;;16.50;91.70;;;;;;5023400;28;20029;-75
2022/05/15 09:25:06;;;;;;;5.25;1.52;;;16.50;91.00;;;;;;5003301;28;20095;-75
2022/05/15 09:27:31;;;;;;;1.98;1.02;;;16.60;91.90;;;;;;5013117;28;20028;-76
2022/05/15 09:30:00;;;;;;;2.67;1.05;;;16.60;92.10;;;;;;5018196;28;20025;-75
2022/05/15 09:32:31;;;;;;;2.33;0.95;;;16.60;91.80;;;;;;5011702;28;20033;-71
2022/05/15 09:34:57;;;;;;;;;;;16.60;91.00;;;;;;5009493;28;20041;-72
2022/05/15 09:40:20;;;;;;;3.03;1.20;;;16.70;91.00;;;;;;5032995;28;20041;-72
2022/05/15 09:45:55;;;;;;;4.60;1.25;;;16.80;90.40;;;;;;5025924;28;20030;-74
2022/05/15 09:48:24;;;;;;;4.68;1.58;;;16.80;90.20;;;;;;5033393;28;20027;-73
2022/05/15 09:50:50;;;;;;;5.13;1.52;;;16.90;90.60;;;;;;5009948;28;20038;-74
2022/05/15 09:53:34;;;;;;;3.10;1.20;;;16.90;90.30;;;;;;5014626;28;20083;-75
2022/05/15 09:56:13;;;;;;;3.88;0.90;;;17.00;90.00;;;;;;5014330;28;20032;-74
2022/05/15 09:58:38;;;;;;;2.75;1.00;;;17.00;90.00;;;;;;5015134;28;20024;-72
2022/05/15 10:01:33;;;;;;;2.20;1.05;;;17.00;89.80;;;;;;5032091;28;20041;-72
2022/05/15 10:04:00;;;;;;;1.95;0.90;;;17.00;89.50;;;;;;5009787;28;20103;-72
2022/05/15 10:06:31;;;;;;;2.17;1.17;;;17.10;88.00;;;;;;5013149;28;20026;-72
2022/05/15 10:09:11;;;;;;;2.55;1.05;;;17.20;87.30;;;;;;5013823;28;20412;-73
2022/05/15 10:11:47;;;;;;;3.05;0.93;;;17.20;86.30;;;;;;5028067;28;20366;-73
2022/05/15 10:14:28;;;;;;;3.08;1.08;;;17.20;86.20;;;;;;5008120;28;20061;-73
2022/05/15 10:16:55;;;;;;;3.78;1.33;;;17.20;86.00;;;;;;4995342;28;20029;-73
2022/05/15 10:19:29;;;;;;;4.07;1.42;;;17.20;86.80;;;;;;5029727;28;20035;-73
2022/05/15 10:22:29;;;;;;;2.25;1.13;;;17.30;85.40;;;;;;5011307;28;20528;-72
2022/05/15 10:25:08;;;;;;;4.33;1.40;;;17.30;87.30;;;;;;5026721;28;20037;-73
2022/05/15 10:27:36;;;;;;;2.03;0.95;;;17.40;86.20;;;;;;5030970;28;20671;-73
2022/05/15 10:30:15;;;;;;;2.78;1.02;;;17.40;84.90;;;;;;5011888;28;20049;-73
2022/05/15 10:32:49;;;;;;;2.53;1.00;;;17.50;85.10;;;;;;5025517;28;20025;-74
2022/05/15 10:35:20;;;;;;;2.47;1.10;;;17.50;84.90;;;;;;4996284;28;20033;-73
2022/05/15 10:38:07;;;;;;;1.75;1.00;;;17.60;86.20;;;;;;5030178;28;20104;-75
2022/05/15 10:40:41;;;;;;;2.35;1.17;;;17.70;86.00;;;;;;5013597;28;20076;-75
2022/05/15 10:43:34;;;;;;;3.25;1.27;;;17.60;84.90;;;;;;5012371;28;20112;-75
2022/05/15 10:46:28;;;;;;;2.08;1.10;;;17.70;82.70;;;;;;5027532;28;20036;-75
2022/05/15 10:49:06;;;;;;;1.50;0.85;;;17.80;83.00;;;;;;5013186;28;20489;-75
2022/05/15 10:52:22;;;;;;;2.75;1.05;;;17.80;81.90;;;;;;5026132;28;20037;-71
2022/05/15 10:58:19;;;;;;;3.10;1.05;;;17.90;80.20;;;;;;5029687;28;20582;-72
2022/05/15 11:01:09;;;;;;;5.80;1.10;;;18.00;80.80;;;;;;5002114;28;20490;-71
2022/05/15 11:03:54;;;;;;;3.78;1.10;;;18.20;82.30;;;;;;5025539;28;20018;-73
2022/05/15 11:06:42;;;;;;;4.30;1.33;;;18.50;83.50;;;;;;5008226;28;20034;-70
2022/05/15 11:09:18;;;;;;;4.65;1.50;;;18.90;84.00;;;;;;5031096;28;20045;-72
2022/05/15 11:12:01;;;;;;;2.50;1.27;;;19.40;81.20;;;;;;5030216;28;20043;-72
2022/05/15 11:14:46;;;;;;;6.10;2.33;;;20.80;80.30;;;;;;5029592;28;20039;-71
2022/05/15 11:17:27;;;;;;;3.28;1.20;;;22.80;72.70;;;;;;5016144;28;20033;-71
2022/05/15 11:19:56;;;;;;;3.28;1.33;;;24.90;66.60;;;;;;5013335;28;20080;-73
2022/05/15 11:22:31;;;;;;;2.72;1.20;;;26.90;63.40;;;;;;4994029;28;20026;-72
2022/05/15 11:25:30;;;;;;;1.90;1.35;;;28.60;57.50;;;;;;5029027;28;20033;-70
2022/05/15 11:28:08;;;;;;;2.90;1.30;;;30.50;51.50;;;;;;5004164;28;20045;-72
2022/05/15 11:30:47;;;;;;;1.27;1.15;;;32.10;46.10;;;;;;5032917;28;20586;-72
2022/05/15 11:33:31;;;;;;;1.33;0.85;;;33.20;41.70;;;;;;5028115;28;20753;-72
2022/05/15 11:36:13;;;;;;;2.03;1.10;;;34.30;40.90;;;;;;5032803;28;20124;-71
2022/05/15 11:39:00;;;;;;;4.20;1.50;;;35.10;38.50;;;;;;5016788;28;20436;-71
2022/05/15 11:41:37;;;;;;;3.55;1.45;;;35.60;37.50;;;;;;5014904;28;20637;-71
2022/05/15 11:44:21;;;;;;;1.92;1.35;;;35.40;37.30;;;;;;5035168;28;20033;-71
2022/05/15 11:46:54;;;;;;;2.97;1.67;;;35.10;37.00;;;;;;5035960;28;20068;-73
2022/05/15 11:49:33;;;;;;;2.53;1.35;;;34.50;37.40;;;;;;5018985;28;20248;-72
2022/05/15 11:52:05;;;;;;;2.15;1.27;;;33.90;37.30;;;;;;4998557;28;20108;-72
2022/05/15 11:54:35;;;;;;;2.08;1.45;;;33.40;37.50;;;;;;5028466;28;20100;-72
2022/05/15 11:57:02;;;;;;;2.22;1.58;;;32.90;35.90;;;;;;5032726;28;20022;-73
2022/05/15 11:59:33;;;;;;;3.22;1.23;;;32.10;38.00;;;;;;5034461;28;20104;-72
2022/05/15 12:02:37;;;;;;;2.35;1.48;;;31.80;38.30;;;;;;5032524;28;20057;-72
2022/05/15 12:05:43;;;;;;;1.50;1.10;;;31.40;40.80;;;;;;4978438;28;20041;-72
2022/05/15 12:08:17;;;;;;;2.88;1.42;;;31.30;39.20;;;;;;4951243;28;20522;-73
2022/05/15 12:10:43;;;;;;;2.17;1.30;;;30.90;37.00;;;;;;5010407;28;20037;-72
2022/05/15 12:13:28;;;;;;;4.43;1.30;;;30.90;38.90;;;;;;4993026;28;20177;-71
2022/05/15 12:16:23;;;;;;;3.22;1.40;;;31.60;37.70;;;;;;5008639;28;20100;-73
2022/05/15 12:18:59;;;;;;;1.20;1.10;;;31.70;38.50;;;;;;5030272;28;20060;-73
2022/05/15 12:21:45;;;;;;;1.92;1.40;;;31.80;39.10;;;;;;5013206;28;20029;-72
2022/05/15 12:24:29;;;;;;;1.90;1.17;;;31.90;37.90;;;;;;5034803;28;20485;-73
2022/05/15 12:27:06;;;;;;;1.35;1.08;;;31.70;38.00;;;;;;5014579;28;20029;-72
2022/05/15 12:29:47;;;;;;;3.15;1.45;;;31.70;37.80;;;;;;5015142;28;20028;-73
2022/05/15 12:32:22;;;;;;;4.20;1.50;;;31.90;38.70;;;;;;5014984;28;20566;-72
2022/05/15 12:34:50;;;;;;;3.92;1.30;;;32.10;38.50;;;;;;5016130;28;20132;-72
2022/05/15 12:37:23;;;;;;;2.75;1.67;;;32.30;36.60;;;;;;5014339;28;20048;-72
2022/05/15 12:39:52;;;;;;;2.47;1.30;;;32.30;37.20;;;;;;5012794;28;21132;-70
2022/05/15 12:42:44;;;;;;;1.38;0.90;;;32.60;37.20;;;;;;5014648;28;20090;-72
2022/05/15 12:45:20;;;;;;;2.95;1.33;;;33.20;37.70;;;;;;5022807;28;20467;-70
2022/05/15 12:48:09;;;;;;;3.60;1.20;;;33.70;36.30;;;;;;5011261;28;20136;-73
2022/05/15 12:51:01;;;;;;;2.40;1.30;;;34.30;35.30;;;;;;5010800;28;20025;-72
2022/05/15 12:53:30;;;;;;;1.83;1.30;;;34.60;34.20;;;;;;5029434;28;20165;-72
2022/05/15 12:56:22;;;;;;;2.40;1.40;;;34.80;33.70;;;;;;5030297;28;20136;-73
2022/05/15 12:58:51;;;;;;;2.28;1.33;;;35.20;33.80;;;;;;5006560;28;20053;-78
2022/05/15 13:01:19;;;;;;;3.00;1.20;;;35.50;34.30;;;;;;5017125;28;20440;-74
2022/05/15 13:03:51;;;;;;;2.42;1.38;;;35.80;33.90;;;;;;5015805;28;20060;-71
2022/05/15 13:06:26;;;;;;;2.20;1.40;;;35.90;33.00;;;;;;5029189;28;20064;-73
2022/05/15 13:08:56;;;;;;;2.10;1.33;;;35.80;33.40;;;;;;5036419;28;20025;-74
2022/05/15 13:11:36;;;;;;;1.92;1.45;;;35.90;34.00;;;;;;5015282;28;20057;-73
2022/05/15 13:14:02;;;;;;;2.25;1.60;;;36.20;33.00;;;;;;5016374;28;20758;-79
2022/05/15 13:16:29;;;;;;;2.70;1.15;;;36.30;34.00;;;;;;5000540;28;20032;-77
2022/05/15 13:18:57;;;;;;;2.28;1.45;;;36.80;33.00;;;;;;5016282;28;20036;-77
2022/05/15 13:21:33;;;;;;;2.45;1.30;;;36.20;31.40;;;;;;4998953;28;20028;-74
2022/05/15 13:23:59;;;;;;;2.33;1.23;;;36.30;31.40;;;;;;5001131;28;20072;-77